sensor_id;sensor_type;location;lat;lon;timestamp;pressure;altitude;pressure_sealevel;temperature;humidity
64402;BME280;50724;42.376;23.768;2023-03-23T00:01:24;93094.56;;;4.29;100.00
64402;BME280;50724;42.376;23.768;2023-03-23T00:04:26;93091.47;;;4.14;100.00
64402;BME280;50724;42.376;23.768;2023-03-23T00:07:29;93094.38;;;4.21;100.00
64402;BME280;50724;42.376;23.768;2023-03-23T00:10:30;93091.63;;;4.43;100.00
64402;BME280;50724;42.376;23.768;2023-03-23T00:13:33;93086.38;;;4.63;100.00
64402;BME280;50724;42.376;23.768;2023-03-23T00:16:34;93089.97;;;4.81;100.00
64402;BME280;50724;42.376;23.768;2023-03-23T00:19:38;93091.06;;;4.88;100.00
64402;BME280;50724;42.376;23.768;2023-03-23T00:22:47;93096.88;;;4.71;100.00
64402;BME280;50724;42.376;23.768;2023-03-23T00:25:49;93095.59;;;4.96;100.00
64402;BME280;50724;42.376;23.768;2023-03-23T00:28:50;93095.75;;;4.95;100.00
64402;BME280;50724;42.376;23.768;2023-03-23T00:31:51;93097.44;;;4.75;100.00
64402;BME280;50724;42.376;23.768;2023-03-23T00:34:52;93098.44;;;4.93;100.00
64402;BME280;50724;42.376;23.768;2023-03-23T00:37:52;93098.44;;;4.93;100.00
64402;BME280;50724;42.376;23.768;2023-03-23T00:40:52;93101.50;;;5.08;100.00
64402;BME280;50724;42.376;23.768;2023-03-23T00:43:55;93098.25;;;5.25;100.00
64402;BME280;50724;42.376;23.768;2023-03-23T00:46:56;93095.09;;;5.21;100.00
64402;BME280;50724;42.376;23.768;2023-03-23T00:49:57;93099.22;;;5.43;100.00
64402;BME280;50724;42.376;23.768;2023-03-23T00:52:58;93104.66;;;5.40;100.00
64402;BME280;50724;42.376;23.768;2023-03-23T00:55:58;93105.22;;;5.34;100.00
64402;BME280;50724;42.376;23.768;2023-03-23T00:58:59;93110.41;;;5.34;100.00
64402;BME280;50724;42.376;23.768;2023-03-23T01:01:59;93108.34;;;5.37;100.00
64402;BME280;50724;42.376;23.768;2023-03-23T01:05:00;93106.03;;;5.34;100.00
64402;BME280;50724;42.376;23.768;2023-03-23T01:08:02;93101.25;;;5.49;100.00
64402;BME280;50724;42.376;23.768;2023-03-23T01:11:06;93094.28;;;5.49;100.00
64402;BME280;50724;42.376;23.768;2023-03-23T01:14:07;93098.53;;;5.41;100.00
64402;BME280;50724;42.376;23.768;2023-03-23T01:17:08;93085.28;;;5.34;100.00
64402;BME280;50724;42.376;23.768;2023-03-23T01:20:09;93101.38;;;5.38;100.00
64402;BME280;50724;42.376;23.768;2023-03-23T01:23:10;93088.84;;;5.52;100.00
64402;BME280;50724;42.376;23.768;2023-03-23T01:26:17;93086.38;;;5.70;100.00
64402;BME280;50724;42.376;23.768;2023-03-23T01:29:17;93085.56;;;5.60;100.00
64402;BME280;50724;42.376;23.768;2023-03-23T01:32:18;93092.94;;;5.36;100.00
64402;BME280;50724;42.376;23.768;2023-03-23T01:35:18;93087.19;;;5.42;100.00
64402;BME280;50724;42.376;23.768;2023-03-23T01:38:19;93081.88;;;5.53;100.00
64402;BME280;50724;42.376;23.768;2023-03-23T01:41:20;93079.97;;;5.36;100.00
64402;BME280;50724;42.376;23.768;2023-03-23T01:47:22;93088.28;;;5.20;100.00
64402;BME280;50724;42.376;23.768;2023-03-23T01:50:25;93085.00;;;5.37;100.00
64402;BME280;50724;42.376;23.768;2023-03-23T01:53:59;93074.22;;;5.51;100.00
64402;BME280;50724;42.376;23.768;2023-03-23T01:57:03;93085.41;;;5.52;100.00
64402;BME280;50724;42.376;23.768;2023-03-23T02:00:08;93089.09;;;5.59;99.49
64402;BME280;50724;42.376;23.768;2023-03-23T02:03:15;93091.03;;;5.57;99.77
64402;BME280;50724;42.376;23.768;2023-03-23T02:06:17;93095.13;;;5.40;100.00
64402;BME280;50724;42.376;23.768;2023-03-23T02:09:18;93100.13;;;5.23;100.00
64402;BME280;50724;42.376;23.768;2023-03-23T02:12:18;93086.09;;;5.44;100.00
64402;BME280;50724;42.376;23.768;2023-03-23T02:28:49;93098.66;;;5.20;100.00
64402;BME280;50724;42.376;23.768;2023-03-23T02:35:18;93101.47;;;4.98;100.00
64402;BME280;50724;42.376;23.768;2023-03-23T02:41:38;93104.50;;;4.63;100.00
64402;BME280;50724;42.376;23.768;2023-03-23T02:44:43;93102.47;;;4.67;100.00
64402;BME280;50724;42.376;23.768;2023-03-23T02:47:45;93112.09;;;4.55;100.00
64402;BME280;50724;42.376;23.768;2023-03-23T02:50:47;93122.59;;;4.54;100.00
64402;BME280;50724;42.376;23.768;2023-03-23T02:53:50;93112.91;;;4.26;100.00
64402;BME280;50724;42.376;23.768;2023-03-23T02:56:53;93112.19;;;4.44;100.00
64402;BME280;50724;42.376;23.768;2023-03-23T02:59:57;93114.38;;;4.18;100.00
64402;BME280;50724;42.376;23.768;2023-03-23T03:02:57;93108.38;;;4.18;100.00
64402;BME280;50724;42.376;23.768;2023-03-23T03:18:40;93124.19;;;3.94;100.00
64402;BME280;50724;42.376;23.768;2023-03-23T03:21:44;93128.78;;;3.91;100.00
64402;BME280;50724;42.376;23.768;2023-03-23T03:24:47;93127.22;;;3.99;100.00
64402;BME280;50724;42.376;23.768;2023-03-23T03:27:49;93129.09;;;3.97;100.00
64402;BME280;50724;42.376;23.768;2023-03-23T03:30:54;93124.94;;;4.36;100.00
64402;BME280;50724;42.376;23.768;2023-03-23T03:33:56;93125.09;;;4.65;100.00
64402;BME280;50724;42.376;23.768;2023-03-23T03:36:59;93134.59;;;4.85;100.00
64402;BME280;50724;42.376;23.768;2023-03-23T03:39:59;93130.50;;;4.92;100.00
64402;BME280;50724;42.376;23.768;2023-03-23T03:43:00;93141.16;;;4.99;100.00
64402;BME280;50724;42.376;23.768;2023-03-23T03:46:01;93138.81;;;4.96;100.00
64402;BME280;50724;42.376;23.768;2023-03-23T03:49:07;93138.59;;;4.68;100.00
64402;BME280;50724;42.376;23.768;2023-03-23T03:52:08;93128.59;;;4.54;100.00
64402;BME280;50724;42.376;23.768;2023-03-23T03:55:09;93140.31;;;4.88;100.00
64402;BME280;50724;42.376;23.768;2023-03-23T03:58:10;93139.84;;;4.74;100.00
64402;BME280;50724;42.376;23.768;2023-03-23T04:01:11;93132.56;;;4.58;100.00
64402;BME280;50724;42.376;23.768;2023-03-23T04:04:11;93137.94;;;4.66;100.00
64402;BME280;50724;42.376;23.768;2023-03-23T04:07:11;93135.69;;;4.52;100.00
64402;BME280;50724;42.376;23.768;2023-03-23T04:10:13;93127.91;;;4.52;100.00
64402;BME280;50724;42.376;23.768;2023-03-23T04:13:14;93133.97;;;4.72;100.00
64402;BME280;50724;42.376;23.768;2023-03-23T04:16:15;93130.13;;;4.57;100.00
64402;BME280;50724;42.376;23.768;2023-03-23T04:19:17;93122.16;;;4.49;100.00
64402;BME280;50724;42.376;23.768;2023-03-23T04:22:18;93127.38;;;4.58;100.00
64402;BME280;50724;42.376;23.768;2023-03-23T04:25:19;93124.66;;;4.60;100.00
64402;BME280;50724;42.376;23.768;2023-03-23T04:28:22;93126.94;;;4.53;100.00
64402;BME280;50724;42.376;23.768;2023-03-23T04:31:24;93123.88;;;4.69;100.00
64402;BME280;50724;42.376;23.768;2023-03-23T04:34:25;93133.44;;;4.68;100.00
64402;BME280;50724;42.376;23.768;2023-03-23T04:37:27;93136.34;;;4.84;100.00
64402;BME280;50724;42.376;23.768;2023-03-23T04:40:28;93140.47;;;4.97;100.00
64402;BME280;50724;42.376;23.768;2023-03-23T04:43:29;93139.81;;;5.14;99.41
64402;BME280;50724;42.376;23.768;2023-03-23T04:46:29;93138.53;;;5.48;97.48
64402;BME280;50724;42.376;23.768;2023-03-23T04:49:30;93143.69;;;5.29;97.62
64402;BME280;50724;42.376;23.768;2023-03-23T04:52:30;93138.97;;;5.63;96.41
64402;BME280;50724;42.376;23.768;2023-03-23T04:55:32;93138.69;;;6.04;93.89
64402;BME280;50724;42.376;23.768;2023-03-23T04:58:36;93146.16;;;6.26;92.18
64402;BME280;50724;42.376;23.768;2023-03-23T05:01:37;93158.72;;;6.86;89.24
64402;BME280;50724;42.376;23.768;2023-03-23T05:04:39;93148.97;;;7.25;86.13
64402;BME280;50724;42.376;23.768;2023-03-23T05:07:41;93161.47;;;7.67;84.36
64402;BME280;50724;42.376;23.768;2023-03-23T05:10:42;93162.03;;;7.60;84.27
64402;BME280;50724;42.376;23.768;2023-03-23T05:13:42;93158.31;;;6.91;86.75
64402;BME280;50724;42.376;23.768;2023-03-23T05:16:44;93160.50;;;6.86;87.01
64402;BME280;50724;42.376;23.768;2023-03-23T05:19:49;93163.78;;;6.42;89.62
64402;BME280;50724;42.376;23.768;2023-03-23T05:22:51;93169.84;;;6.23;91.20
64402;BME280;50724;42.376;23.768;2023-03-23T05:25:56;93164.63;;;6.33;91.17
64402;BME280;50724;42.376;23.768;2023-03-23T05:28:56;93166.22;;;6.53;90.05
64402;BME280;50724;42.376;23.768;2023-03-23T05:31:57;93172.72;;;6.76;89.28
64402;BME280;50724;42.376;23.768;2023-03-23T05:35:00;93176.34;;;6.92;88.06
64402;BME280;50724;42.376;23.768;2023-03-23T05:38:01;93173.03;;;7.27;86.72
64402;BME280;50724;42.376;23.768;2023-03-23T05:41:02;93173.34;;;7.24;86.84
64402;BME280;50724;42.376;23.768;2023-03-23T05:44:02;93177.38;;;7.36;85.77
64402;BME280;50724;42.376;23.768;2023-03-23T05:47:03;93173.75;;;7.47;84.88
64402;BME280;50724;42.376;23.768;2023-03-23T05:50:05;93181.41;;;7.93;82.93
64402;BME280;50724;42.376;23.768;2023-03-23T05:53:06;93180.38;;;8.04;81.40
64402;BME280;50724;42.376;23.768;2023-03-23T05:56:07;93186.63;;;8.46;81.21
64402;BME280;50724;42.376;23.768;2023-03-23T05:59:09;93187.31;;;8.56;80.53
64402;BME280;50724;42.376;23.768;2023-03-23T06:02:13;93188.06;;;8.66;78.99
64402;BME280;50724;42.376;23.768;2023-03-23T06:05:15;93181.19;;;8.65;79.06
64402;BME280;50724;42.376;23.768;2023-03-23T06:08:16;93185.25;;;8.85;78.44
64402;BME280;50724;42.376;23.768;2023-03-23T06:11:16;93185.56;;;8.82;76.66
64402;BME280;50724;42.376;23.768;2023-03-23T06:14:17;93188.25;;;8.98;75.35
64402;BME280;50724;42.376;23.768;2023-03-23T06:17:17;93185.63;;;8.90;76.63
64402;BME280;50724;42.376;23.768;2023-03-23T06:20:18;93191.84;;;8.97;77.66
64402;BME280;50724;42.376;23.768;2023-03-23T06:23:18;93194.97;;;9.01;76.65
64402;BME280;50724;42.376;23.768;2023-03-23T06:26:20;93198.69;;;8.98;75.25
64402;BME280;50724;42.376;23.768;2023-03-23T06:29:20;93200.88;;;9.11;76.47
64402;BME280;50724;42.376;23.768;2023-03-23T06:32:21;93200.13;;;9.19;76.01
64402;BME280;50724;42.376;23.768;2023-03-23T06:35:23;93203.00;;;9.41;75.86
64402;BME280;50724;42.376;23.768;2023-03-23T06:38:23;93204.53;;;9.60;75.35
64402;BME280;50724;42.376;23.768;2023-03-23T06:41:25;93201.50;;;9.39;72.55
64402;BME280;50724;42.376;23.768;2023-03-23T06:44:28;93201.34;;;9.40;75.08
64402;BME280;50724;42.376;23.768;2023-03-23T06:47:29;93210.00;;;9.41;72.72
64402;BME280;50724;42.376;23.768;2023-03-23T06:50:32;93207.56;;;9.39;72.63
64402;BME280;50724;42.376;23.768;2023-03-23T06:53:33;93210.94;;;9.32;72.34
64402;BME280;50724;42.376;23.768;2023-03-23T06:56:34;93217.06;;;9.48;71.00
64402;BME280;50724;42.376;23.768;2023-03-23T06:59:34;93214.25;;;9.42;70.49
64402;BME280;50724;42.376;23.768;2023-03-23T07:02:35;93220.41;;;9.33;70.29
64402;BME280;50724;42.376;23.768;2023-03-23T07:05:35;93216.41;;;9.46;70.40
64402;BME280;50724;42.376;23.768;2023-03-23T07:08:36;93220.19;;;9.60;69.91
64402;BME280;50724;42.376;23.768;2023-03-23T07:11:36;93226.09;;;9.62;69.37
64402;BME280;50724;42.376;23.768;2023-03-23T07:14:47;93228.94;;;9.85;68.52
64402;BME280;50724;42.376;23.768;2023-03-23T07:17:48;93229.28;;;9.82;67.42
64402;BME280;50724;42.376;23.768;2023-03-23T07:20:52;93232.94;;;10.05;63.18
64402;BME280;50724;42.376;23.768;2023-03-23T07:23:53;93231.72;;;10.65;64.30
64402;BME280;50724;42.376;23.768;2023-03-23T07:26:53;93229.28;;;11.04;62.53
64402;BME280;50724;42.376;23.768;2023-03-23T07:29:54;93237.75;;;10.74;61.37
64402;BME280;50724;42.376;23.768;2023-03-23T07:32:54;93239.19;;;10.12;63.03
64402;BME280;50724;42.376;23.768;2023-03-23T07:35:58;93243.41;;;10.13;62.83
64402;BME280;50724;42.376;23.768;2023-03-23T07:38:59;93246.09;;;9.87;63.46
64402;BME280;50724;42.376;23.768;2023-03-23T07:42:00;93250.81;;;10.25;65.06
64402;BME280;50724;42.376;23.768;2023-03-23T07:45:01;93243.63;;;10.44;61.96
64402;BME280;50724;42.376;23.768;2023-03-23T07:48:01;93251.44;;;10.19;61.21
64402;BME280;50724;42.376;23.768;2023-03-23T07:51:02;93246.88;;;10.21;60.83
64402;BME280;50724;42.376;23.768;2023-03-23T07:54:02;93257.53;;;10.44;61.08
64402;BME280;50724;42.376;23.768;2023-03-23T07:57:04;93250.84;;;10.98;61.42
64402;BME280;50724;42.376;23.768;2023-03-23T08:00:07;93236.47;;;10.70;61.14
64402;BME280;50724;42.376;23.768;2023-03-23T08:03:12;93234.66;;;11.02;59.56
64402;BME280;50724;42.376;23.768;2023-03-23T08:06:13;93246.91;;;11.18;58.16
64402;BME280;50724;42.376;23.768;2023-03-23T08:09:22;93246.91;;;11.18;58.90
64402;BME280;50724;42.376;23.768;2023-03-23T08:12:23;93254.38;;;11.45;58.38
64402;BME280;50724;42.376;23.768;2023-03-23T08:15:33;93245.72;;;12.30;57.52
64402;BME280;50724;42.376;23.768;2023-03-23T08:18:37;93248.06;;;12.17;57.16
64402;BME280;50724;42.376;23.768;2023-03-23T08:21:39;93251.78;;;12.00;56.36
64402;BME280;50724;42.376;23.768;2023-03-23T08:24:40;93242.56;;;12.80;55.88
64402;BME280;50724;42.376;23.768;2023-03-23T08:27:40;93245.50;;;12.09;55.25
64402;BME280;50724;42.376;23.768;2023-03-23T08:30:44;93245.88;;;11.35;56.00
64402;BME280;50724;42.376;23.768;2023-03-23T08:33:44;93250.16;;;11.28;56.98
64402;BME280;50724;42.376;23.768;2023-03-23T08:36:45;93247.69;;;11.35;57.64
64402;BME280;50724;42.376;23.768;2023-03-23T08:39:46;93251.06;;;11.59;57.70
64402;BME280;50724;42.376;23.768;2023-03-23T08:42:48;93245.06;;;11.43;58.02
64402;BME280;50724;42.376;23.768;2023-03-23T08:45:50;93261.78;;;10.53;59.85
64402;BME280;50724;42.376;23.768;2023-03-23T08:48:51;93253.78;;;10.63;59.92
64402;BME280;50724;42.376;23.768;2023-03-23T08:51:52;93249.88;;;10.83;59.65
64402;BME280;50724;42.376;23.768;2023-03-23T08:54:52;93235.63;;;11.18;57.77
64402;BME280;50724;42.376;23.768;2023-03-23T08:57:53;93249.47;;;11.42;57.54
64402;BME280;50724;42.376;23.768;2023-03-23T09:00:53;93242.81;;;11.16;58.44
64402;BME280;50724;42.376;23.768;2023-03-23T09:03:54;93243.19;;;10.80;59.83
64402;BME280;50724;42.376;23.768;2023-03-23T09:06:55;93251.38;;;10.85;57.96
64402;BME280;50724;42.376;23.768;2023-03-23T09:09:56;93251.44;;;11.48;56.98
64402;BME280;50724;42.376;23.768;2023-03-23T09:12:56;93247.25;;;11.86;57.40
64402;BME280;50724;42.376;23.768;2023-03-23T09:15:57;93254.09;;;11.32;56.91
64402;BME280;50724;42.376;23.768;2023-03-23T09:18:58;93255.13;;;10.99;58.43
64402;BME280;50724;42.376;23.768;2023-03-23T09:21:59;93259.34;;;10.68;60.01
64402;BME280;50724;42.376;23.768;2023-03-23T09:25:00;93246.28;;;10.92;61.44
64402;BME280;50724;42.376;23.768;2023-03-23T09:28:02;93247.28;;;11.70;56.52
64402;BME280;50724;42.376;23.768;2023-03-23T09:31:03;93241.50;;;12.21;53.97
64402;BME280;50724;42.376;23.768;2023-03-23T09:34:04;93231.19;;;12.20;55.14
64402;BME280;50724;42.376;23.768;2023-03-23T09:37:06;93237.19;;;11.98;55.22
64402;BME280;50724;42.376;23.768;2023-03-23T09:40:11;93240.69;;;11.82;54.87
64402;BME280;50724;42.376;23.768;2023-03-23T09:49:59;93238.19;;;11.34;56.49
64402;BME280;50724;42.376;23.768;2023-03-23T09:56:23;93232.00;;;11.19;54.71
64402;BME280;50724;42.376;23.768;2023-03-23T09:59:49;93227.19;;;12.32;54.36
64402;BME280;50724;42.376;23.768;2023-03-23T10:03:06;93224.44;;;12.93;52.96
64402;BME280;50724;42.376;23.768;2023-03-23T10:06:12;93234.13;;;12.93;53.00
64402;BME280;50724;42.376;23.768;2023-03-23T10:09:16;93222.84;;;12.16;53.79
64402;BME280;50724;42.376;23.768;2023-03-23T10:12:25;93235.16;;;12.08;53.58
64402;BME280;50724;42.376;23.768;2023-03-23T10:15:33;93230.44;;;12.57;53.50
64402;BME280;50724;42.376;23.768;2023-03-23T10:18:43;93215.19;;;12.60;54.99
64402;BME280;50724;42.376;23.768;2023-03-23T10:22:08;93211.38;;;13.08;53.37
64402;BME280;50724;42.376;23.768;2023-03-23T10:28:17;93203.72;;;12.98;53.17
64402;BME280;50724;42.376;23.768;2023-03-23T10:31:24;93216.28;;;12.88;51.14
64402;BME280;50724;42.376;23.768;2023-03-23T10:34:34;93218.03;;;13.33;51.47
64402;BME280;50724;42.376;23.768;2023-03-23T10:37:39;93215.00;;;12.84;50.51
64402;BME280;50724;42.376;23.768;2023-03-23T10:40:49;93208.06;;;13.29;50.77
64402;BME280;50724;42.376;23.768;2023-03-23T10:43:53;93195.41;;;12.72;51.82
64402;BME280;50724;42.376;23.768;2023-03-23T10:47:01;93191.38;;;12.99;52.89
64402;BME280;50724;42.376;23.768;2023-03-23T10:50:05;93198.63;;;12.60;53.30
64402;BME280;50724;42.376;23.768;2023-03-23T10:53:17;93186.47;;;12.81;52.70
64402;BME280;50724;42.376;23.768;2023-03-23T10:56:40;93185.13;;;13.37;53.12
64402;BME280;50724;42.376;23.768;2023-03-23T10:59:41;93181.97;;;13.13;50.48
64402;BME280;50724;42.376;23.768;2023-03-23T11:03:19;93196.06;;;12.52;50.67
64402;BME280;50724;42.376;23.768;2023-03-23T11:06:10;93198.50;;;12.53;51.88
64402;BME280;50724;42.376;23.768;2023-03-23T11:09:16;93191.03;;;12.65;52.61
64402;BME280;50724;42.376;23.768;2023-03-23T11:12:19;93185.94;;;12.86;52.36
64402;BME280;50724;42.376;23.768;2023-03-23T11:15:34;93183.28;;;13.08;51.19
64402;BME280;50724;42.376;23.768;2023-03-23T11:21:38;93182.97;;;13.41;51.32
64402;BME280;50724;42.376;23.768;2023-03-23T11:24:47;93170.28;;;13.15;51.28
64402;BME280;50724;42.376;23.768;2023-03-23T11:27:49;93171.19;;;13.66;52.37
64402;BME280;50724;42.376;23.768;2023-03-23T11:30:53;93174.13;;;14.28;48.17
64402;BME280;50724;42.376;23.768;2023-03-23T11:34:25;93176.88;;;13.11;49.30
64402;BME280;50724;42.376;23.768;2023-03-23T11:37:33;93163.38;;;13.72;46.48
64402;BME280;50724;42.376;23.768;2023-03-23T11:40:44;93165.53;;;14.55;47.25
64402;BME280;50724;42.376;23.768;2023-03-23T11:43:51;93157.28;;;15.07;45.05
64402;BME280;50724;42.376;23.768;2023-03-23T11:47:08;93164.09;;;14.17;46.69
64402;BME280;50724;42.376;23.768;2023-03-23T11:53:53;93151.44;;;14.06;48.86
64402;BME280;50724;42.376;23.768;2023-03-23T11:56:56;93148.50;;;14.30;48.28
64402;BME280;50724;42.376;23.768;2023-03-23T11:59:57;93146.53;;;14.03;48.80
64402;BME280;50724;42.376;23.768;2023-03-23T12:09:49;93145.41;;;14.12;48.38
64402;BME280;50724;42.376;23.768;2023-03-23T12:13:10;93139.50;;;13.89;48.22
64402;BME280;50724;42.376;23.768;2023-03-23T12:16:34;93135.66;;;14.41;47.32
64402;BME280;50724;42.376;23.768;2023-03-23T12:36:11;93120.19;;;14.81;47.18
64402;BME280;50724;42.376;23.768;2023-03-23T12:39:04;93130.81;;;14.45;47.97
64402;BME280;50724;42.376;23.768;2023-03-23T12:42:13;93119.50;;;13.73;47.60
64402;BME280;50724;42.376;23.768;2023-03-23T12:45:50;93140.22;;;13.97;46.62
64402;BME280;50724;42.376;23.768;2023-03-23T12:52:12;93124.75;;;13.88;48.14
64402;BME280;50724;42.376;23.768;2023-03-23T12:55:20;93117.47;;;13.90;47.76
64402;BME280;50724;42.376;23.768;2023-03-23T12:58:29;93121.56;;;13.92;49.17
64402;BME280;50724;42.376;23.768;2023-03-23T13:01:45;93124.25;;;13.99;47.65
64402;BME280;50724;42.376;23.768;2023-03-23T13:05:02;93129.88;;;13.31;50.08
64402;BME280;50724;42.376;23.768;2023-03-23T13:08:22;93121.75;;;12.74;50.05
64402;BME280;50724;42.376;23.768;2023-03-23T13:11:33;93115.47;;;13.41;49.45
64402;BME280;50724;42.376;23.768;2023-03-23T13:17:58;93124.81;;;13.94;47.17
64402;BME280;50724;42.376;23.768;2023-03-23T13:21:17;93122.25;;;14.01;47.55
64402;BME280;50724;42.376;23.768;2023-03-23T13:24:21;93119.91;;;13.91;46.41
64402;BME280;50724;42.376;23.768;2023-03-23T13:27:25;93114.63;;;14.06;48.51
64402;BME280;50724;42.376;23.768;2023-03-23T13:30:29;93117.16;;;14.35;47.96
64402;BME280;50724;42.376;23.768;2023-03-23T13:33:32;93122.09;;;14.66;47.36
64402;BME280;50724;42.376;23.768;2023-03-23T13:36:43;93120.28;;;14.66;46.61
64402;BME280;50724;42.376;23.768;2023-03-23T13:39:49;93111.97;;;14.90;46.86
64402;BME280;50724;42.376;23.768;2023-03-23T13:42:58;93110.59;;;14.45;45.23
64402;BME280;50724;42.376;23.768;2023-03-23T13:46:12;93109.16;;;14.43;46.46
64402;BME280;50724;42.376;23.768;2023-03-23T13:52:17;93105.44;;;14.37;47.32
64402;BME280;50724;42.376;23.768;2023-03-23T13:55:39;93104.41;;;14.17;47.60
64402;BME280;50724;42.376;23.768;2023-03-23T13:58:52;93112.41;;;14.09;48.06
64402;BME280;50724;42.376;23.768;2023-03-23T14:06:21;93103.59;;;13.96;48.53
64402;BME280;50724;42.376;23.768;2023-03-23T14:09:28;93112.28;;;13.60;48.82
64402;BME280;50724;42.376;23.768;2023-03-23T14:12:30;93116.06;;;13.72;48.58
64402;BME280;50724;42.376;23.768;2023-03-23T14:15:41;93106.69;;;13.49;48.86
64402;BME280;50724;42.376;23.768;2023-03-23T14:18:51;93105.53;;;13.87;48.94
64402;BME280;50724;42.376;23.768;2023-03-23T14:25:12;93101.72;;;14.11;47.85
64402;BME280;50724;42.376;23.768;2023-03-23T14:28:18;93104.09;;;14.06;46.70
64402;BME280;50724;42.376;23.768;2023-03-23T14:31:25;93098.59;;;14.01;47.55
64402;BME280;50724;42.376;23.768;2023-03-23T14:34:29;93096.00;;;14.07;47.00
64402;BME280;50724;42.376;23.768;2023-03-23T14:37:31;93087.69;;;14.04;47.06
64402;BME280;50724;42.376;23.768;2023-03-23T14:40:33;93085.88;;;14.25;46.77
64402;BME280;50724;42.376;23.768;2023-03-23T14:43:34;93091.25;;;13.96;47.56
64402;BME280;50724;42.376;23.768;2023-03-23T14:46:35;93095.22;;;13.71;48.24
64402;BME280;50724;42.376;23.768;2023-03-23T14:49:38;93093.56;;;13.85;47.49
64402;BME280;50724;42.376;23.768;2023-03-23T14:52:39;93094.22;;;13.72;48.32
64402;BME280;50724;42.376;23.768;2023-03-23T14:55:42;93089.97;;;13.71;48.24
64402;BME280;50724;42.376;23.768;2023-03-23T14:58:47;93091.31;;;13.67;48.47
64402;BME280;50724;42.376;23.768;2023-03-23T15:01:50;93087.28;;;13.86;48.50
64402;BME280;50724;42.376;23.768;2023-03-23T15:05:01;93083.63;;;14.01;47.86
64402;BME280;50724;42.376;23.768;2023-03-23T15:08:05;93087.75;;;13.89;47.41
64402;BME280;50724;42.376;23.768;2023-03-23T15:14:17;93096.91;;;13.78;47.01
64402;BME280;50724;42.376;23.768;2023-03-23T15:17:29;93085.69;;;13.70;47.84
64402;BME280;50724;42.376;23.768;2023-03-23T15:20:45;93089.16;;;13.70;47.76
64402;BME280;50724;42.376;23.768;2023-03-23T15:23:45;93095.38;;;13.84;47.87
64402;BME280;50724;42.376;23.768;2023-03-23T15:26:46;93095.72;;;13.81;46.92
64402;BME280;50724;42.376;23.768;2023-03-23T15:29:51;93098.13;;;13.76;46.87
64402;BME280;50724;42.376;23.768;2023-03-23T15:32:54;93091.78;;;13.70;47.67
64402;BME280;50724;42.376;23.768;2023-03-23T15:35:57;93099.03;;;13.68;47.78
64402;BME280;50724;42.376;23.768;2023-03-23T15:38:57;93103.75;;;13.58;47.80
64402;BME280;50724;42.376;23.768;2023-03-23T15:41:59;93097.25;;;13.40;48.45
64402;BME280;50724;42.376;23.768;2023-03-23T15:45:26;93097.72;;;13.29;48.86
64402;BME280;50724;42.376;23.768;2023-03-23T15:48:27;93108.31;;;13.35;48.35
64402;BME280;50724;42.376;23.768;2023-03-23T15:51:30;93109.16;;;13.36;51.72
64402;BME280;50724;42.376;23.768;2023-03-23T15:54:31;93115.31;;;13.28;54.64
64402;BME280;50724;42.376;23.768;2023-03-23T15:57:33;93114.34;;;12.92;56.83
64402;BME280;50724;42.376;23.768;2023-03-23T16:00:34;93114.72;;;12.89;57.19
64402;BME280;50724;42.376;23.768;2023-03-23T16:03:44;93117.75;;;12.78;57.73
64402;BME280;50724;42.376;23.768;2023-03-23T16:06:46;93118.19;;;12.67;58.02
64402;BME280;50724;42.376;23.768;2023-03-23T16:09:47;93121.53;;;12.61;59.40
64402;BME280;50724;42.376;23.768;2023-03-23T16:12:47;93124.59;;;12.27;60.90
64402;BME280;50724;42.376;23.768;2023-03-23T16:15:48;93125.88;;;11.86;62.09
64402;BME280;50724;42.376;23.768;2023-03-23T16:18:48;93128.88;;;11.74;63.65
64402;BME280;50724;42.376;23.768;2023-03-23T16:21:49;93132.69;;;11.56;64.82
64402;BME280;50724;42.376;23.768;2023-03-23T16:24:49;93133.28;;;11.35;65.97
64402;BME280;50724;42.376;23.768;2023-03-23T16:27:50;93144.66;;;11.12;67.79
64402;BME280;50724;42.376;23.768;2023-03-23T16:30:50;93136.03;;;10.95;68.81
64402;BME280;50724;42.376;23.768;2023-03-23T16:33:51;93136.75;;;10.73;69.92
64402;BME280;50724;42.376;23.768;2023-03-23T16:36:51;93143.78;;;10.64;70.50
64402;BME280;50724;42.376;23.768;2023-03-23T16:39:51;93146.25;;;10.42;71.58
64402;BME280;50724;42.376;23.768;2023-03-23T16:42:53;93147.22;;;10.32;71.58
64402;BME280;50724;42.376;23.768;2023-03-23T16:45:55;93142.81;;;10.17;72.97
64402;BME280;50724;42.376;23.768;2023-03-23T16:48:56;93161.72;;;10.03;72.44
64402;BME280;50724;42.376;23.768;2023-03-23T16:51:56;93166.44;;;9.99;72.41
64402;BME280;50724;42.376;23.768;2023-03-23T16:54:57;93155.78;;;9.85;73.25
64402;BME280;50724;42.376;23.768;2023-03-23T16:57:58;93153.94;;;9.53;74.64
64402;BME280;50724;42.376;23.768;2023-03-23T17:00:59;93158.69;;;9.24;75.59
64402;BME280;50724;42.376;23.768;2023-03-23T17:04:00;93155.13;;;9.25;75.99
64402;BME280;50724;42.376;23.768;2023-03-23T17:07:00;93153.94;;;9.19;75.67
64402;BME280;50724;42.376;23.768;2023-03-23T17:10:01;93160.84;;;8.94;76.87
64402;BME280;50724;42.376;23.768;2023-03-23T17:13:01;93166.75;;;8.71;77.97
64402;BME280;50724;42.376;23.768;2023-03-23T17:16:02;93171.47;;;8.67;78.82
64402;BME280;50724;42.376;23.768;2023-03-23T17:19:02;93179.84;;;8.53;79.55
64402;BME280;50724;42.376;23.768;2023-03-23T17:22:03;93177.47;;;8.68;79.68
64402;BME280;50724;42.376;23.768;2023-03-23T17:25:04;93183.22;;;8.71;79.62
64402;BME280;50724;42.376;23.768;2023-03-23T17:28:05;93191.31;;;8.68;79.61
64402;BME280;50724;42.376;23.768;2023-03-23T17:31:05;93197.03;;;8.46;80.60
64402;BME280;50724;42.376;23.768;2023-03-23T17:34:06;93193.03;;;8.34;81.49
64402;BME280;50724;42.376;23.768;2023-03-23T17:37:07;93200.25;;;8.40;81.34
64402;BME280;50724;42.376;23.768;2023-03-23T17:40:09;93205.81;;;8.10;82.54
64402;BME280;50724;42.376;23.768;2023-03-23T17:43:10;93216.44;;;7.99;84.54